Time;durP1;ratioP1;P1;durP2;ratioP2;P2;SDS_P1;SDS_P2;PMS_P1;PMS_P2;Temp;Humidity;BMP_temperature;BMP_pressure;BME280_temperature;BME280_humidity;BME280_pressure;Samples;Min_cycle;Max_cycle;Signal;HPM_P1;HPM_P2
2022/08/22 00:03:55;;;;;;;0.00;0.00;;;;;;;;;;12291934;19;19995;-67
2022/08/22 00:08:08;;;;;;;0.00;0.00;;;;;;;;;;12277581;19;20035;-67
2022/08/22 00:12:14;;;;;;;0.00;0.00;;;;;;;;;;12281203;19;19983;-67
2022/08/22 00:16:24;;;;;;;0.00;0.00;;;;;;;;;;12281191;19;19986;-67
2022/08/22 00:20:37;;;;;;;0.00;0.00;;;;;;;;;;12280990;19;19979;-68
2022/08/22 00:24:37;;;;;;;;;;;;;;;;;;12279604;19;20238;-68
2022/08/22 00:28:49;;;;;;;0.00;0.00;;;;;;;;;;12280915;19;19984;-68
2022/08/22 00:32:53;;;;;;;0.00;0.00;;;;;;;;;;12280712;19;20302;-68
2022/08/22 00:36:59;;;;;;;0.00;0.00;;;;;;;;;;12279250;19;19987;-67
2022/08/22 00:41:04;;;;;;;0.00;0.00;;;;;;;;;;12278204;19;19983;-67
2022/08/22 00:45:07;;;;;;;0.00;0.00;;;;;;;;;;12281884;19;20261;-67
2022/08/22 00:49:32;;;;;;;0.00;0.00;;;;;;;;;;12276156;19;20055;-67
2022/08/22 00:53:39;;;;;;;0.00;0.00;;;;;;;;;;12276202;19;19983;-67
2022/08/22 00:58:12;;;;;;;0.00;0.00;;;;;;;;;;12279800;19;20099;-67
2022/08/22 01:02:18;;;;;;;0.00;0.00;;;;;;;;;;12278198;19;20010;-67
2022/08/22 01:06:18;;;;;;;0.00;0.00;;;;;;;;;;12270139;19;20003;-67
2022/08/22 01:10:19;;;;;;;0.00;0.00;;;;;;;;;;12269598;19;20007;-67
2022/08/22 01:14:19;;;;;;;0.00;0.00;;;;;;;;;;12269454;19;20003;-67
2022/08/22 01:18:22;;;;;;;0.00;0.00;;;;;;;;;;12272467;19;20010;-67
2022/08/22 01:22:23;;;;;;;0.00;0.00;;;;;;;;;;12269566;19;20000;-67
2022/08/22 01:26:26;;;;;;;0.00;0.00;;;;;;;;;;12268855;19;20005;-67
2022/08/22 01:30:49;;;;;;;0.00;0.00;;;;;;;;;;12268015;19;19998;-67
2022/08/22 01:34:49;;;;;;;0.00;0.00;;;;;;;;;;12267604;19;20073;-67
2022/08/22 01:39:10;;;;;;;0.00;0.00;;;;;;;;;;12272549;19;20038;-67
2022/08/22 01:43:16;;;;;;;0.00;0.00;;;;;;;;;;12265062;19;19986;-66
2022/08/22 01:47:19;;;;;;;0.00;0.00;;;;;;;;;;12265121;19;20211;-66
2022/08/22 01:51:23;;;;;;;0.00;0.00;;;;;;;;;;12267141;19;19994;-66
2022/08/22 01:55:29;;;;;;;0.00;0.00;;;;;;;;;;12270365;19;20194;-66
2022/08/22 01:59:32;;;;;;;0.00;0.00;;;;;;;;;;12267332;19;19987;-67
2022/08/22 02:03:37;;;;;;;0.00;0.00;;;;;;;;;;12269666;19;19998;-67
2022/08/22 02:07:37;;;;;;;0.00;0.00;;;;;;;;;;12263068;19;20021;-67
2022/08/22 02:11:47;;;;;;;0.00;0.00;;;;;;;;;;12270654;19;20058;-67
2022/08/22 02:16:05;;;;;;;0.00;0.00;;;;;;;;;;12271090;19;19983;-67
2022/08/22 02:20:26;;;;;;;0.00;0.00;;;;;;;;;;12270227;19;20057;-67
2022/08/22 02:24:32;;;;;;;0.00;0.00;;;;;;;;;;12269311;19;19987;-67
2022/08/22 02:28:53;;;;;;;0.00;0.00;;;;;;;;;;12269850;19;19987;-67
2022/08/22 02:32:59;;;;;;;0.00;0.00;;;;;;;;;;12273731;19;20007;-67
2022/08/22 02:37:07;;;;;;;0.00;0.00;;;;;;;;;;12270112;19;19987;-67
2022/08/22 02:41:07;;;;;;;0.00;0.00;;;;;;;;;;12272980;19;20005;-67
2022/08/22 02:45:25;;;;;;;0.00;0.00;;;;;;;;;;12268759;19;19991;-67
2022/08/22 02:49:25;;;;;;;0.00;0.00;;;;;;;;;;12267908;19;20131;-67
2022/08/22 02:53:31;;;;;;;0.00;0.00;;;;;;;;;;12266144;19;19994;-67
2022/08/22 02:57:37;;;;;;;0.00;0.00;;;;;;;;;;12268327;19;20152;-67
2022/08/22 03:01:39;;;;;;;0.00;0.00;;;;;;;;;;12268241;19;20007;-68
2022/08/22 03:05:40;;;;;;;0.00;0.00;;;;;;;;;;12271875;19;20007;-68
2022/08/22 03:09:40;;;;;;;0.00;0.00;;;;;;;;;;12272056;19;20013;-67
2022/08/22 03:13:47;;;;;;;0.00;0.00;;;;;;;;;;12270008;19;20019;-68
2022/08/22 03:18:02;;;;;;;0.00;0.00;;;;;;;;;;12266536;19;19983;-68
2022/08/22 03:22:07;;;;;;;0.00;0.00;;;;;;;;;;12273131;19;19999;-68
2022/08/22 03:26:14;;;;;;;0.00;0.00;;;;;;;;;;12266176;19;20011;-68
2022/08/22 03:30:17;;;;;;;0.00;0.00;;;;;;;;;;12268332;19;20034;-68
2022/08/22 03:34:21;;;;;;;0.00;0.00;;;;;;;;;;12267225;19;19983;-68
2022/08/22 03:38:23;;;;;;;0.00;0.00;;;;;;;;;;12267200;19;19983;-67
2022/08/22 03:42:42;;;;;;;0.00;0.00;;;;;;;;;;12271630;19;20006;-67
2022/08/22 03:46:55;;;;;;;0.00;0.00;;;;;;;;;;12267709;19;20027;-66
2022/08/22 03:51:01;;;;;;;0.00;0.00;;;;;;;;;;12270452;19;20238;-69
2022/08/22 03:55:11;;;;;;;0.00;0.00;;;;;;;;;;12261995;19;20219;-69
2022/08/22 03:59:29;;;;;;;0.00;0.00;;;;;;;;;;12271142;19;19998;-68
2022/08/22 04:03:30;;;;;;;0.00;0.00;;;;;;;;;;12272734;19;19998;-69
2022/08/22 04:07:30;;;;;;;0.00;0.00;;;;;;;;;;12276961;19;20025;-69
2022/08/22 04:11:38;;;;;;;0.00;0.00;;;;;;;;;;12283209;19;20003;-68
2022/08/22 04:15:38;;;;;;;0.00;0.00;;;;;;;;;;12281302;19;20002;-68
2022/08/22 04:19:47;;;;;;;0.00;0.00;;;;;;;;;;12277549;19;20009;-68
2022/08/22 04:23:53;;;;;;;0.00;0.00;;;;;;;;;;12276565;19;20026;-68
2022/08/22 04:28:01;;;;;;;0.00;0.00;;;;;;;;;;12278852;19;20007;-68
2022/08/22 04:32:06;;;;;;;0.00;0.00;;;;;;;;;;12280376;19;19995;-69
2022/08/22 04:36:12;;;;;;;0.00;0.00;;;;;;;;;;12277655;19;20009;-68
2022/08/22 04:40:12;;;;;;;0.00;0.00;;;;;;;;;;12275015;19;20096;-68
2022/08/22 04:44:33;;;;;;;0.00;0.00;;;;;;;;;;12282438;19;19999;-68
2022/08/22 04:49:05;;;;;;;0.00;0.00;;;;;;;;;;12275263;19;20131;-68
2022/08/22 04:53:24;;;;;;;0.00;0.00;;;;;;;;;;12270564;19;20002;-68
2022/08/22 04:57:27;;;;;;;0.00;0.00;;;;;;;;;;12271504;19;20022;-68
2022/08/22 05:01:43;;;;;;;0.00;0.00;;;;;;;;;;12272098;19;20091;-68
2022/08/22 05:05:43;;;;;;;0.00;0.00;;;;;;;;;;12267951;19;20147;-68
2022/08/22 05:09:46;;;;;;;0.00;0.00;;;;;;;;;;12269803;19;20018;-68
2022/08/22 05:13:49;;;;;;;0.00;0.00;;;;;;;;;;12263011;19;20015;-69
2022/08/22 05:17:52;;;;;;;0.00;0.00;;;;;;;;;;12270042;19;20019;-69
2022/08/22 05:21:52;;;;;;;0.00;0.00;;;;;;;;;;12271058;19;20013;-68
2022/08/22 05:25:56;;;;;;;0.00;0.00;;;;;;;;;;12269496;19;20003;-68
2022/08/22 05:30:02;;;;;;;0.00;0.00;;;;;;;;;;12272829;19;19979;-68
2022/08/22 05:34:25;;;;;;;0.00;0.00;;;;;;;;;;12275026;19;20010;-68
2022/08/22 05:38:27;;;;;;;0.00;0.00;;;;;;;;;;12277282;19;19994;-68
2022/08/22 05:42:30;;;;;;;0.00;0.00;;;;;;;;;;12271480;19;20115;-69
2022/08/22 05:46:42;;;;;;;0.00;0.00;;;;;;;;;;12271308;19;20138;-68
2022/08/22 05:50:54;;;;;;;0.00;0.00;;;;;;;;;;12271883;19;20009;-68
2022/08/22 05:54:56;;;;;;;0.00;0.00;;;;;;;;;;12274801;19;20365;-68
2022/08/22 05:59:00;;;;;;;0.00;0.00;;;;;;;;;;12277767;19;20006;-68
2022/08/22 06:03:06;;;;;;;0.00;0.00;;;;;;;;;;12276973;19;19994;-68
2022/08/22 06:07:13;;;;;;;0.00;0.00;;;;;;;;;;12275447;19;20011;-68
2022/08/22 06:11:13;;;;;;;0.00;0.00;;;;;;;;;;12276537;19;19994;-68
2022/08/22 06:15:16;;;;;;;0.00;0.00;;;;;;;;;;12273706;19;19983;-68
2022/08/22 06:19:18;;;;;;;0.00;0.00;;;;;;;;;;12278719;19;19998;-68
2022/08/22 06:23:24;;;;;;;0.00;0.00;;;;;;;;;;12278790;19;19999;-63
2022/08/22 06:27:25;;;;;;;0.00;0.00;;;;;;;;;;12272991;19;19991;-67
2022/08/22 06:31:34;;;;;;;0.00;0.00;;;;;;;;;;12273424;19;20126;-68
2022/08/22 06:40:03;;;;;;;0.00;0.00;;;;;;;;;;12280973;19;20031;-67
2022/08/22 06:44:03;;;;;;;;;;;;;;;;;;12272856;19;19983;-67
2022/08/22 06:48:04;;;;;;;0.00;0.00;;;;;;;;;;12274702;19;19915;-64
2022/08/22 06:52:10;;;;;;;0.00;0.00;;;;;;;;;;12272142;19;19999;-64
2022/08/22 06:56:12;;;;;;;0.00;0.00;;;;;;;;;;12274736;19;20226;-67
2022/08/22 07:00:14;;;;;;;0.00;0.00;;;;;;;;;;12271183;19;19991;-67
2022/08/22 07:04:14;;;;;;;0.00;0.00;;;;;;;;;;12271483;19;19986;-68
2022/08/22 07:08:18;;;;;;;0.00;0.00;;;;;;;;;;12281065;19;20034;-67
2022/08/22 07:12:19;;;;;;;0.00;0.00;;;;;;;;;;12270846;19;20035;-68
2022/08/22 07:16:42;;;;;;;0.00;0.00;;;;;;;;;;12276214;19;20049;-67
2022/08/22 07:20:46;;;;;;;0.00;0.00;;;;;;;;;;12270637;19;20119;-68
2022/08/22 07:24:48;;;;;;;0.00;0.00;;;;;;;;;;12270799;19;20063;-67
2022/08/22 07:28:51;;;;;;;0.00;0.00;;;;;;;;;;12268482;19;20002;-64
2022/08/22 07:32:54;;;;;;;0.00;0.00;;;;;;;;;;12276508;19;20002;-67
2022/08/22 07:37:05;;;;;;;0.00;0.00;;;;;;;;;;12276063;19;20031;-68
2022/08/22 07:41:05;;;;;;;0.00;0.00;;;;;;;;;;12280355;19;20014;-67
2022/08/22 07:45:09;;;;;;;0.00;0.00;;;;;;;;;;12284209;19;20006;-64
2022/08/22 07:49:13;;;;;;;0.00;0.00;;;;;;;;;;12281059;19;19994;-64
2022/08/22 07:53:34;;;;;;;0.00;0.00;;;;;;;;;;12284682;19;20014;-68
2022/08/22 07:57:43;;;;;;;0.00;0.00;;;;;;;;;;12285885;19;20003;-63
2022/08/22 08:01:45;;;;;;;0.00;0.00;;;;;;;;;;12285595;19;19998;-63
2022/08/22 08:05:46;;;;;;;0.00;0.00;;;;;;;;;;12286366;19;20006;-63
2022/08/22 08:09:59;;;;;;;0.00;0.00;;;;;;;;;;12286642;19;20007;-68
2022/08/22 08:14:05;;;;;;;0.00;0.00;;;;;;;;;;12282967;19;20013;-67
2022/08/22 08:18:10;;;;;;;0.00;0.00;;;;;;;;;;12280344;19;20021;-67
2022/08/22 08:22:20;;;;;;;0.00;0.00;;;;;;;;;;12283104;19;20010;-67
2022/08/22 08:26:23;;;;;;;0.00;0.00;;;;;;;;;;12284642;19;20006;-63
2022/08/22 08:30:24;;;;;;;0.00;0.00;;;;;;;;;;12281028;19;20002;-68
2022/08/22 08:34:25;;;;;;;0.00;0.00;;;;;;;;;;12279229;19;20021;-67
2022/08/22 08:38:29;;;;;;;0.00;0.00;;;;;;;;;;12281245;19;20009;-67
2022/08/22 08:47:34;;;;;;;0.00;0.00;;;;;;;;;;12277668;19;20047;-64
2022/08/22 08:51:53;;;;;;;0.00;0.00;;;;;;;;;;12274716;19;19983;-67
2022/08/22 08:55:57;;;;;;;0.00;0.00;;;;;;;;;;12275288;19;20010;-70
2022/08/22 09:00:06;;;;;;;0.00;0.00;;;;;;;;;;12278838;19;20003;-63
2022/08/22 09:04:19;;;;;;;0.00;0.00;;;;;;;;;;12279966;19;20010;-67
2022/08/22 09:08:25;;;;;;;0.00;0.00;;;;;;;;;;12273674;19;19987;-69
2022/08/22 09:12:42;;;;;;;0.00;0.00;;;;;;;;;;12279342;19;20003;-68
2022/08/22 09:16:45;;;;;;;0.00;0.00;;;;;;;;;;12275388;19;20031;-64
2022/08/22 09:21:04;;;;;;;0.00;0.00;;;;;;;;;;12274952;19;20124;-64
2022/08/22 09:25:10;;;;;;;0.00;0.00;;;;;;;;;;12279306;19;20259;-68
2022/08/22 09:29:17;;;;;;;0.00;0.00;;;;;;;;;;12275634;19;19983;-69
2022/08/22 09:33:20;;;;;;;0.00;0.00;;;;;;;;;;12284289;19;20067;-67
2022/08/22 09:37:38;;;;;;;0.00;0.00;;;;;;;;;;12283197;19;20003;-68
2022/08/22 09:41:57;;;;;;;0.00;0.00;;;;;;;;;;12277641;19;20239;-68
2022/08/22 09:45:57;;;;;;;0.00;0.00;;;;;;;;;;12276843;19;20178;-68
2022/08/22 09:50:01;;;;;;;0.00;0.00;;;;;;;;;;12273147;19;20211;-68
2022/08/22 09:54:14;;;;;;;0.00;0.00;;;;;;;;;;12279012;19;20063;-67
2022/08/22 09:58:35;;;;;;;0.00;0.00;;;;;;;;;;12277441;19;19987;-68
2022/08/22 10:02:54;;;;;;;0.00;0.00;;;;;;;;;;12278257;19;19999;-68
2022/08/22 10:06:54;;;;;;;0.00;0.00;;;;;;;;;;12275337;19;20047;-68
2022/08/22 10:11:14;;;;;;;0.00;0.00;;;;;;;;;;12280653;19;20084;-68
2022/08/22 10:15:18;;;;;;;0.00;0.00;;;;;;;;;;12274815;19;20043;-65
2022/08/22 10:19:34;;;;;;;0.00;0.00;;;;;;;;;;12273686;19;20031;-68
2022/08/22 10:24:07;;;;;;;0.00;0.00;;;;;;;;;;12278342;19;20011;-68
2022/08/22 10:28:11;;;;;;;0.00;0.00;;;;;;;;;;12270764;19;19998;-68
2022/08/22 10:32:21;;;;;;;0.00;0.00;;;;;;;;;;12271684;19;20006;-67
2022/08/22 10:36:29;;;;;;;0.00;0.00;;;;;;;;;;12267774;19;19990;-65
2022/08/22 10:40:38;;;;;;;0.00;0.00;;;;;;;;;;12272512;19;20010;-68
2022/08/22 10:45:10;;;;;;;0.00;0.00;;;;;;;;;;12267382;19;19995;-68
2022/08/22 10:49:18;;;;;;;0.00;0.00;;;;;;;;;;12268515;19;20011;-69
2022/08/22 10:53:28;;;;;;;0.00;0.00;;;;;;;;;;12267912;19;20028;-66
2022/08/22 10:57:47;;;;;;;0.00;0.00;;;;;;;;;;12268415;19;20185;-69
2022/08/22 11:01:54;;;;;;;0.00;0.00;;;;;;;;;;12266602;19;20015;-63
2022/08/22 11:05:59;;;;;;;0.00;0.00;;;;;;;;;;12264364;19;19987;-67
2022/08/22 11:10:08;;;;;;;0.00;0.00;;;;;;;;;;12271225;19;20058;-67
2022/08/22 11:14:11;;;;;;;0.00;0.00;;;;;;;;;;12276084;19;19995;-64
2022/08/22 11:18:19;;;;;;;0.00;0.00;;;;;;;;;;12281670;19;20007;-65
2022/08/22 11:22:39;;;;;;;0.00;0.00;;;;;;;;;;12278411;19;20027;-67
2022/08/22 11:26:39;;;;;;;0.00;0.00;;;;;;;;;;12281042;19;20103;-64
2022/08/22 11:30:45;;;;;;;0.00;0.00;;;;;;;;;;12282360;19;20101;-67
2022/08/22 11:35:00;;;;;;;0.00;0.00;;;;;;;;;;12288342;19;20075;-67
2022/08/22 11:39:19;;;;;;;0.00;0.00;;;;;;;;;;12288889;19;20026;-67
2022/08/22 11:43:25;;;;;;;0.00;0.00;;;;;;;;;;12283998;19;20104;-64
2022/08/22 11:47:34;;;;;;;0.00;0.00;;;;;;;;;;12277338;19;20010;-67
2022/08/22 11:51:43;;;;;;;0.00;0.00;;;;;;;;;;12290230;19;20003;-68
2022/08/22 11:56:11;;;;;;;0.00;0.00;;;;;;;;;;12287290;19;19999;-67
2022/08/22 12:00:15;;;;;;;0.00;0.00;;;;;;;;;;12284716;19;20067;-68
2022/08/22 12:04:48;;;;;;;0.00;0.00;;;;;;;;;;12283555;19;20014;-67
2022/08/22 12:08:49;;;;;;;;;;;;;;;;;;12276512;19;20002;-68
2022/08/22 12:12:49;;;;;;;0.00;0.00;;;;;;;;;;12277465;19;19911;-68
2022/08/22 12:17:05;;;;;;;0.00;0.00;;;;;;;;;;12275261;19;20010;-67
2022/08/22 12:21:12;;;;;;;0.00;0.00;;;;;;;;;;12279699;19;19998;-63
2022/08/22 12:25:12;;;;;;;0.00;0.00;;;;;;;;;;12278900;19;20263;-67
2022/08/22 12:29:32;;;;;;;0.00;0.00;;;;;;;;;;12275579;19;20306;-67
2022/08/22 12:34:07;;;;;;;0.00;0.00;;;;;;;;;;12273084;19;20136;-67
2022/08/22 12:38:14;;;;;;;0.00;0.00;;;;;;;;;;12272859;19;19991;-67
2022/08/22 12:42:17;;;;;;;0.00;0.00;;;;;;;;;;12272379;19;20054;-67
2022/08/22 12:46:31;;;;;;;0.00;0.00;;;;;;;;;;12273533;19;19989;-67
2022/08/22 12:50:53;;;;;;;0.00;0.00;;;;;;;;;;12274896;19;20085;-68
2022/08/22 12:55:05;;;;;;;0.00;0.00;;;;;;;;;;12272162;19;20250;-68
2022/08/22 12:59:13;;;;;;;0.00;0.00;;;;;;;;;;12276790;19;20007;-64
2022/08/22 13:03:26;;;;;;;0.00;0.00;;;;;;;;;;12274654;19;20219;-64
2022/08/22 13:07:29;;;;;;;0.00;0.00;;;;;;;;;;12270077;19;19994;-63
2022/08/22 13:11:36;;;;;;;0.00;0.00;;;;;;;;;;12283192;19;20046;-68
2022/08/22 13:15:53;;;;;;;0.00;0.00;;;;;;;;;;12282147;19;20007;-67
2022/08/22 13:19:57;;;;;;;0.00;0.00;;;;;;;;;;12283136;19;20002;-64
2022/08/22 13:24:04;;;;;;;0.00;0.00;;;;;;;;;;12281853;19;20046;-67
2022/08/22 13:28:09;;;;;;;0.00;0.00;;;;;;;;;;12274455;19;20015;-61
2022/08/22 13:32:17;;;;;;;0.00;0.00;;;;;;;;;;12272982;19;19983;-65
2022/08/22 13:36:19;;;;;;;0.00;0.00;;;;;;;;;;12273431;19;19983;-64
2022/08/22 13:40:24;;;;;;;0.00;0.00;;;;;;;;;;12277627;19;20030;-69
2022/08/22 13:44:24;;;;;;;0.00;0.00;;;;;;;;;;12281887;19;19995;-67
2022/08/22 13:48:27;;;;;;;0.00;0.00;;;;;;;;;;12281499;19;20006;-71
2022/08/22 13:52:30;;;;;;;0.00;0.00;;;;;;;;;;12283662;19;20007;-68
2022/08/22 13:56:39;;;;;;;0.00;0.00;;;;;;;;;;12277079;19;20014;-70
2022/08/22 14:00:58;;;;;;;0.00;0.00;;;;;;;;;;12276609;19;20009;-72
2022/08/22 14:04:59;;;;;;;0.00;0.00;;;;;;;;;;12275539;19;20010;-64
2022/08/22 14:09:03;;;;;;;0.00;0.00;;;;;;;;;;12277195;19;20023;-64
2022/08/22 14:13:09;;;;;;;0.00;0.00;;;;;;;;;;12276770;19;20013;-66
2022/08/22 14:17:21;;;;;;;0.00;0.00;;;;;;;;;;12271999;19;20007;-72
2022/08/22 14:21:28;;;;;;;0.00;0.00;;;;;;;;;;12276544;19;19991;-72
2022/08/22 14:25:32;;;;;;;0.00;0.00;;;;;;;;;;12273142;19;20107;-74
2022/08/22 14:29:41;;;;;;;0.00;0.00;;;;;;;;;;12273279;19;20002;-72
2022/08/22 14:33:54;;;;;;;0.00;0.00;;;;;;;;;;12275275;19;20001;-71
2022/08/22 14:38:00;;;;;;;0.00;0.00;;;;;;;;;;12275325;19;20007;-64
2022/08/22 14:42:07;;;;;;;0.00;0.00;;;;;;;;;;12272436;19;20215;-71
2022/08/22 14:46:13;;;;;;;0.00;0.00;;;;;;;;;;12272930;19;19994;-71
2022/08/22 14:50:32;;;;;;;0.00;0.00;;;;;;;;;;12267920;19;20022;-71
2022/08/22 14:54:32;;;;;;;0.00;0.00;;;;;;;;;;12267628;19;20031;-72
2022/08/22 14:58:35;;;;;;;0.00;0.00;;;;;;;;;;12273349;19;20002;-71
2022/08/22 15:02:35;;;;;;;0.00;0.00;;;;;;;;;;12273732;19;20164;-72
2022/08/22 15:06:38;;;;;;;0.00;0.00;;;;;;;;;;12269065;19;20132;-66
2022/08/22 15:10:38;;;;;;;0.00;0.00;;;;;;;;;;12272522;19;19998;-73
2022/08/22 15:14:39;;;;;;;0.00;0.00;;;;;;;;;;12270521;19;20006;-74
2022/08/22 15:18:40;;;;;;;0.00;0.00;;;;;;;;;;12270557;19;20102;-62
2022/08/22 15:22:43;;;;;;;0.00;0.00;;;;;;;;;;12267681;19;20009;-65
2022/08/22 15:26:52;;;;;;;0.00;0.00;;;;;;;;;;12266116;19;20014;-66
2022/08/22 15:30:55;;;;;;;0.00;0.00;;;;;;;;;;12272555;19;20237;-65
2022/08/22 15:35:22;;;;;;;0.00;0.00;;;;;;;;;;12268055;19;20211;-68
2022/08/22 15:39:28;;;;;;;0.00;0.00;;;;;;;;;;12273759;19;19994;-62
2022/08/22 15:43:33;;;;;;;0.00;0.00;;;;;;;;;;12271924;19;20029;-64
2022/08/22 15:47:33;;;;;;;0.00;0.00;;;;;;;;;;12263647;19;20006;-65
2022/08/22 15:51:39;;;;;;;0.00;0.00;;;;;;;;;;12274005;19;20041;-64
2022/08/22 15:55:59;;;;;;;0.00;0.00;;;;;;;;;;12271170;19;20239;-64
2022/08/22 16:00:25;;;;;;;0.00;0.00;;;;;;;;;;12274020;19;19991;-63
2022/08/22 16:04:31;;;;;;;0.00;0.00;;;;;;;;;;12277856;19;20023;-67
2022/08/22 16:08:34;;;;;;;0.00;0.00;;;;;;;;;;12280820;19;20006;-68
2022/08/22 16:12:37;;;;;;;0.00;0.00;;;;;;;;;;12284731;19;20034;-64
2022/08/22 16:16:43;;;;;;;0.00;0.00;;;;;;;;;;12283015;19;20007;-64
2022/08/22 16:20:48;;;;;;;0.00;0.00;;;;;;;;;;12285990;19;20003;-64
2022/08/22 16:24:56;;;;;;;0.00;0.00;;;;;;;;;;12284896;19;19998;-63
2022/08/22 16:29:02;;;;;;;0.00;0.00;;;;;;;;;;12275390;19;20218;-61
2022/08/22 16:33:04;;;;;;;0.00;0.00;;;;;;;;;;12285815;19;19995;-65
2022/08/22 16:37:07;;;;;;;0.00;0.00;;;;;;;;;;12289005;19;19999;-63
2022/08/22 16:41:23;;;;;;;0.00;0.00;;;;;;;;;;12284457;19;20007;-61
2022/08/22 16:45:23;;;;;;;0.00;0.00;;;;;;;;;;12280550;19;20311;-67
2022/08/22 16:49:31;;;;;;;0.00;0.00;;;;;;;;;;12282624;19;20081;-68
2022/08/22 16:53:34;;;;;;;0.00;0.00;;;;;;;;;;12283116;19;20011;-69
2022/08/22 16:57:41;;;;;;;0.00;0.00;;;;;;;;;;12287806;19;20010;-63
2022/08/22 17:02:01;;;;;;;0.00;0.00;;;;;;;;;;12286572;19;19999;-67
2022/08/22 17:06:01;;;;;;;0.00;0.00;;;;;;;;;;12284273;19;20030;-63
2022/08/22 17:10:18;;;;;;;0.00;0.00;;;;;;;;;;12283855;19;20074;-67
2022/08/22 17:14:18;;;;;;;0.00;0.00;;;;;;;;;;12281755;19;20033;-67
2022/08/22 17:18:25;;;;;;;0.00;0.00;;;;;;;;;;12280497;19;20010;-67
2022/08/22 17:22:30;;;;;;;0.00;0.00;;;;;;;;;;12281727;19;20006;-64
2022/08/22 17:26:49;;;;;;;0.00;0.00;;;;;;;;;;12280740;19;20003;-62
2022/08/22 17:31:15;;;;;;;0.00;0.00;;;;;;;;;;12286585;19;19998;-67
2022/08/22 17:35:25;;;;;;;0.00;0.00;;;;;;;;;;12277387;19;20038;-64
2022/08/22 17:39:25;;;;;;;0.00;0.00;;;;;;;;;;12277495;19;20028;-67
2022/08/22 17:43:32;;;;;;;0.00;0.00;;;;;;;;;;12278849;19;20058;-67
2022/08/22 17:47:38;;;;;;;0.00;0.00;;;;;;;;;;12276323;19;20018;-67
2022/08/22 17:51:41;;;;;;;0.00;0.00;;;;;;;;;;12278313;19;20002;-62
2022/08/22 17:56:03;;;;;;;0.00;0.00;;;;;;;;;;12279668;19;20006;-68
2022/08/22 18:00:08;;;;;;;0.00;0.00;;;;;;;;;;12275995;19;20116;-64
2022/08/22 18:04:27;;;;;;;0.00;0.00;;;;;;;;;;12277930;19;20050;-68
2022/08/22 18:08:42;;;;;;;0.00;0.00;;;;;;;;;;12272532;19;20006;-62
2022/08/22 18:12:48;;;;;;;0.00;0.00;;;;;;;;;;12279164;19;20010;-66
2022/08/22 18:16:51;;;;;;;0.00;0.00;;;;;;;;;;12274046;19;20006;-66
2022/08/22 18:20:51;;;;;;;;;;;;;;;;;;12283481;19;19997;-66
2022/08/22 18:25:25;;;;;;;0.00;0.00;;;;;;;;;;12281373;19;19923;-60
2022/08/22 18:29:43;;;;;;;0.00;0.00;;;;;;;;;;12276265;19;20003;-65
2022/08/22 18:34:04;;;;;;;0.00;0.00;;;;;;;;;;12276462;19;20028;-66
2022/08/22 18:38:23;;;;;;;0.00;0.00;;;;;;;;;;12275242;19;20214;-63
2022/08/22 18:42:26;;;;;;;0.00;0.00;;;;;;;;;;12277683;19;20022;-64
2022/08/22 18:46:26;;;;;;;0.00;0.00;;;;;;;;;;12279784;19;20330;-66
2022/08/22 18:50:29;;;;;;;0.00;0.00;;;;;;;;;;12278554;19;20042;-61
2022/08/22 18:54:48;;;;;;;0.00;0.00;;;;;;;;;;12276805;19;20019;-61
2022/08/22 18:58:54;;;;;;;0.00;0.00;;;;;;;;;;12277388;19;19995;-69
2022/08/22 19:03:02;;;;;;;0.00;0.00;;;;;;;;;;12279763;19;20006;-65
2022/08/22 19:07:17;;;;;;;0.00;0.00;;;;;;;;;;12280370;19;19986;-63
2022/08/22 19:11:36;;;;;;;0.00;0.00;;;;;;;;;;12283672;19;20002;-67
2022/08/22 19:16:03;;;;;;;0.00;0.00;;;;;;;;;;12288215;19;19999;-68
2022/08/22 19:24:52;;;;;;;0.00;0.00;;;;;;;;;;12279673;19;20009;-64
2022/08/22 19:30:07;;;;;;;0.00;0.00;;;;;;;;;;12332931;19;20065;-63
2022/08/22 19:34:12;;;;;;;0.00;0.00;;;;;;;;;;12345887;19;20021;-63
2022/08/22 19:38:33;;;;;;;0.00;0.00;;;;;;;;;;12351585;19;20049;-65
2022/08/22 19:42:34;;;;;;;0.00;0.00;;;;;;;;;;12345865;19;20011;-63
2022/08/22 19:46:36;;;;;;;0.00;0.00;;;;;;;;;;12341812;19;20007;-63
2022/08/22 19:50:37;;;;;;;0.00;0.00;;;;;;;;;;12348440;19;19996;-63
2022/08/22 19:54:58;;;;;;;0.00;0.00;;;;;;;;;;12348858;19;20027;-62
2022/08/22 19:58:58;;;;;;;0.00;0.00;;;;;;;;;;12351062;19;19995;-62
2022/08/22 20:03:04;;;;;;;0.00;0.00;;;;;;;;;;12346641;19;20009;-62
2022/08/22 20:07:13;;;;;;;0.00;0.00;;;;;;;;;;12345562;19;20007;-68
2022/08/22 20:11:36;;;;;;;0.00;0.00;;;;;;;;;;12339645;19;20014;-65
2022/08/22 20:16:02;;;;;;;0.00;0.00;;;;;;;;;;12344969;19;19986;-65
2022/08/22 20:20:04;;;;;;;0.00;0.00;;;;;;;;;;12339304;19;20006;-64
2022/08/22 20:24:06;;;;;;;0.00;0.00;;;;;;;;;;12342073;19;20005;-63
2022/08/22 20:28:08;;;;;;;0.00;0.00;;;;;;;;;;12343296;19;20050;-64
2022/08/22 20:32:09;;;;;;;;;;;;;;;;;;12341850;19;20003;-65
2022/08/22 20:36:11;;;;;;;0.00;0.00;;;;;;;;;;12345827;19;19918;-63
2022/08/22 20:40:14;;;;;;;0.00;0.00;;;;;;;;;;12306264;19;20011;-64
2022/08/22 20:44:18;;;;;;;0.00;0.00;;;;;;;;;;12298025;19;20039;-65
2022/08/22 20:48:18;;;;;;;0.00;0.00;;;;;;;;;;12300365;19;20007;-63
2022/08/22 20:52:27;;;;;;;0.00;0.00;;;;;;;;;;12301409;19;20018;-65
2022/08/22 20:56:33;;;;;;;0.00;0.00;;;;;;;;;;12293730;19;20010;-63
2022/08/22 21:00:38;;;;;;;0.00;0.00;;;;;;;;;;12294988;19;20011;-65
2022/08/22 21:04:41;;;;;;;0.00;0.00;;;;;;;;;;12294413;19;19998;-64
2022/08/22 21:08:42;;;;;;;0.00;0.00;;;;;;;;;;12294621;19;20035;-64
2022/08/22 21:12:58;;;;;;;0.00;0.00;;;;;;;;;;12289647;19;19987;-64
2022/08/22 21:17:15;;;;;;;0.00;0.00;;;;;;;;;;12285708;19;20002;-67
2022/08/22 21:21:21;;;;;;;0.00;0.00;;;;;;;;;;12285545;19;19979;-65
2022/08/22 21:25:21;;;;;;;0.00;0.00;;;;;;;;;;12297355;19;20007;-64
2022/08/22 21:29:25;;;;;;;0.00;0.00;;;;;;;;;;12291680;19;20058;-67
2022/08/22 21:33:26;;;;;;;0.00;0.00;;;;;;;;;;12295796;19;20502;-61
2022/08/22 21:37:29;;;;;;;0.00;0.00;;;;;;;;;;12292974;19;19991;-61
2022/08/22 21:41:29;;;;;;;0.00;0.00;;;;;;;;;;12291345;19;20298;-62
2022/08/22 21:45:31;;;;;;;0.00;0.00;;;;;;;;;;12303574;19;20007;-64
2022/08/22 21:49:31;;;;;;;0.00;0.00;;;;;;;;;;12279876;19;20187;-64
2022/08/22 21:53:32;;;;;;;0.00;0.00;;;;;;;;;;12286742;19;20225;-65
2022/08/22 21:57:34;;;;;;;0.00;0.00;;;;;;;;;;12289639;19;19991;-63
2022/08/22 22:01:34;;;;;;;0.00;0.00;;;;;;;;;;12287317;19;20211;-66
2022/08/22 22:05:35;;;;;;;0.00;0.00;;;;;;;;;;12293282;19;20042;-63
2022/08/22 22:09:35;;;;;;;0.00;0.00;;;;;;;;;;12291993;19;20054;-63
2022/08/22 22:13:36;;;;;;;0.00;0.00;;;;;;;;;;12287143;19;20005;-63
2022/08/22 22:17:36;;;;;;;0.00;0.00;;;;;;;;;;12298170;19;20002;-62
2022/08/22 22:21:37;;;;;;;0.00;0.00;;;;;;;;;;12296587;19;20003;-63
2022/08/22 22:25:38;;;;;;;0.00;0.00;;;;;;;;;;12290856;19;19998;-64
2022/08/22 22:29:38;;;;;;;0.00;0.00;;;;;;;;;;12293305;19;20013;-63
2022/08/22 22:33:40;;;;;;;0.00;0.00;;;;;;;;;;12293794;19;20247;-63
2022/08/22 22:37:41;;;;;;;0.00;0.00;;;;;;;;;;12290721;19;20441;-63
2022/08/22 22:41:41;;;;;;;0.00;0.00;;;;;;;;;;12288489;19;19987;-64
2022/08/22 22:45:42;;;;;;;0.00;0.00;;;;;;;;;;12285232;19;19983;-62
2022/08/22 22:49:43;;;;;;;0.00;0.00;;;;;;;;;;12287681;19;19995;-66
2022/08/22 22:53:44;;;;;;;0.00;0.00;;;;;;;;;;12284989;19;19991;-63
2022/08/22 22:57:44;;;;;;;0.00;0.00;;;;;;;;;;12294320;19;20014;-63
2022/08/22 23:02:00;;;;;;;0.00;0.00;;;;;;;;;;12289358;19;20465;-66
2022/08/22 23:06:00;;;;;;;0.00;0.00;;;;;;;;;;12275341;19;20442;-66
2022/08/22 23:10:03;;;;;;;0.00;0.00;;;;;;;;;;12270850;19;20029;-67
2022/08/22 23:14:04;;;;;;;0.00;0.00;;;;;;;;;;12276136;19;20021;-67
2022/08/22 23:18:04;;;;;;;0.00;0.00;;;;;;;;;;12267885;19;20001;-66
2022/08/22 23:22:05;;;;;;;0.00;0.00;;;;;;;;;;12273771;19;20029;-66
2022/08/22 23:26:05;;;;;;;0.00;0.00;;;;;;;;;;12268303;19;20390;-66
2022/08/22 23:30:07;;;;;;;0.00;0.00;;;;;;;;;;12270882;19;20007;-66
2022/08/22 23:34:12;;;;;;;0.00;0.00;;;;;;;;;;12267761;19;20006;-67
2022/08/22 23:38:12;;;;;;;0.00;0.00;;;;;;;;;;12269593;19;20449;-66
2022/08/22 23:42:13;;;;;;;0.00;0.00;;;;;;;;;;12266728;19;19987;-66
2022/08/22 23:46:14;;;;;;;0.00;0.00;;;;;;;;;;12267353;19;20136;-66
2022/08/22 23:50:15;;;;;;;0.00;0.00;;;;;;;;;;12267249;19;20001;-66
2022/08/22 23:54:16;;;;;;;0.00;0.00;;;;;;;;;;12269818;19;20017;-66
2022/08/22 23:58:16;;;;;;;0.00;0.00;;;;;;;;;;12270792;19;19999;-66
